sensor_id;sensor_type;location;lat;lon;timestamp;P1;durP1;ratioP1;P2;durP2;ratioP2
75535;SDS011;64119;52.070;20.804;2022-11-04T00:02:00;13.70;;;7.80;;
75535;SDS011;64119;52.070;20.804;2022-11-04T00:04:30;15.70;;;8.60;;
75535;SDS011;64119;52.070;20.804;2022-11-04T00:06:57;15.80;;;7.90;;
75535;SDS011;64119;52.070;20.804;2022-11-04T00:09:26;15.30;;;8.10;;
75535;SDS011;64119;52.070;20.804;2022-11-04T00:11:56;10.40;;;5.50;;
75535;SDS011;64119;52.070;20.804;2022-11-04T00:15:00;22.40;;;8.70;;
75535;SDS011;64119;52.070;20.804;2022-11-04T00:17:47;13.50;;;6.10;;
75535;SDS011;64119;52.070;20.804;2022-11-04T00:20:15;18.10;;;9.60;;
75535;SDS011;64119;52.070;20.804;2022-11-04T00:23:01;10.80;;;4.70;;
75535;SDS011;64119;52.070;20.804;2022-11-04T00:25:47;15.70;;;8.50;;
75535;SDS011;64119;52.070;20.804;2022-11-04T00:28:35;13.20;;;6.00;;
75535;SDS011;64119;52.070;20.804;2022-11-04T00:31:11;14.30;;;6.40;;
75535;SDS011;64119;52.070;20.804;2022-11-04T00:33:58;10.90;;;6.60;;
75535;SDS011;64119;52.070;20.804;2022-11-04T00:36:26;22.10;;;8.40;;
75535;SDS011;64119;52.070;20.804;2022-11-04T00:38:53;14.70;;;7.00;;
75535;SDS011;64119;52.070;20.804;2022-11-04T00:41:21;17.60;;;8.00;;
75535;SDS011;64119;52.070;20.804;2022-11-04T00:43:57;22.00;;;11.00;;
75535;SDS011;64119;52.070;20.804;2022-11-04T00:46:28;11.90;;;6.00;;
75535;SDS011;64119;52.070;20.804;2022-11-04T00:48:57;19.50;;;8.90;;
75535;SDS011;64119;52.070;20.804;2022-11-04T00:51:26;19.90;;;9.70;;
75535;SDS011;64119;52.070;20.804;2022-11-04T00:53:54;13.30;;;6.10;;
75535;SDS011;64119;52.070;20.804;2022-11-04T00:56:24;19.10;;;9.20;;
75535;SDS011;64119;52.070;20.804;2022-11-04T00:58:52;13.50;;;6.40;;
75535;SDS011;64119;52.070;20.804;2022-11-04T01:01:20;11.10;;;4.90;;
75535;SDS011;64119;52.070;20.804;2022-11-04T01:03:48;17.90;;;8.40;;
75535;SDS011;64119;52.070;20.804;2022-11-04T01:06:18;14.00;;;6.20;;
75535;SDS011;64119;52.070;20.804;2022-11-04T01:08:47;22.30;;;9.60;;
75535;SDS011;64119;52.070;20.804;2022-11-04T01:11:15;11.80;;;6.10;;
75535;SDS011;64119;52.070;20.804;2022-11-04T01:13:44;15.60;;;6.50;;
75535;SDS011;64119;52.070;20.804;2022-11-04T01:16:12;12.90;;;6.90;;
75535;SDS011;64119;52.070;20.804;2022-11-04T01:18:40;14.90;;;7.20;;
75535;SDS011;64119;52.070;20.804;2022-11-04T01:21:09;13.50;;;6.20;;
75535;SDS011;64119;52.070;20.804;2022-11-04T01:23:39;10.40;;;5.00;;
75535;SDS011;64119;52.070;20.804;2022-11-04T01:26:11;17.40;;;8.20;;
75535;SDS011;64119;52.070;20.804;2022-11-04T01:28:40;11.90;;;6.50;;
75535;SDS011;64119;52.070;20.804;2022-11-04T01:31:08;12.40;;;6.00;;
75535;SDS011;64119;52.070;20.804;2022-11-04T01:33:38;16.70;;;7.20;;
75535;SDS011;64119;52.070;20.804;2022-11-04T01:36:07;15.20;;;7.40;;
75535;SDS011;64119;52.070;20.804;2022-11-04T01:38:35;11.40;;;6.00;;
75535;SDS011;64119;52.070;20.804;2022-11-04T01:41:04;13.00;;;5.50;;
75535;SDS011;64119;52.070;20.804;2022-11-04T01:43:52;12.80;;;5.20;;
75535;SDS011;64119;52.070;20.804;2022-11-04T01:49:04;14.00;;;5.50;;
75535;SDS011;64119;52.070;20.804;2022-11-04T01:51:42;14.70;;;6.30;;
75535;SDS011;64119;52.070;20.804;2022-11-04T01:54:12;8.10;;;4.00;;
75535;SDS011;64119;52.070;20.804;2022-11-04T01:56:40;11.60;;;5.60;;
75535;SDS011;64119;52.070;20.804;2022-11-04T01:59:13;12.80;;;4.70;;
75535;SDS011;64119;52.070;20.804;2022-11-04T02:01:47;7.80;;;3.70;;
75535;SDS011;64119;52.070;20.804;2022-11-04T02:04:15;9.30;;;5.10;;
75535;SDS011;64119;52.070;20.804;2022-11-04T02:06:56;11.80;;;6.40;;
75535;SDS011;64119;52.070;20.804;2022-11-04T02:09:27;11.40;;;5.60;;
75535;SDS011;64119;52.070;20.804;2022-11-04T02:11:59;9.90;;;4.10;;
75535;SDS011;64119;52.070;20.804;2022-11-04T02:14:46;11.30;;;5.00;;
75535;SDS011;64119;52.070;20.804;2022-11-04T02:31:19;10.20;;;4.70;;
75535;SDS011;64119;52.070;20.804;2022-11-04T02:36:48;14.30;;;6.30;;
75535;SDS011;64119;52.070;20.804;2022-11-04T02:42:12;4.80;;;2.60;;
75535;SDS011;64119;52.070;20.804;2022-11-04T02:47:44;8.60;;;3.90;;
75535;SDS011;64119;52.070;20.804;2022-11-04T02:50:22;7.50;;;4.30;;
75535;SDS011;64119;52.070;20.804;2022-11-04T02:55:56;12.60;;;4.90;;
75535;SDS011;64119;52.070;20.804;2022-11-04T02:58:47;10.90;;;4.90;;
75535;SDS011;64119;52.070;20.804;2022-11-04T03:01:23;6.90;;;3.60;;
75535;SDS011;64119;52.070;20.804;2022-11-04T03:03:59;11.80;;;4.90;;
75535;SDS011;64119;52.070;20.804;2022-11-04T03:06:31;15.90;;;6.90;;
75535;SDS011;64119;52.070;20.804;2022-11-04T03:09:01;7.20;;;3.50;;
75535;SDS011;64119;52.070;20.804;2022-11-04T03:11:30;8.90;;;4.10;;
75535;SDS011;64119;52.070;20.804;2022-11-04T03:14:03;10.80;;;5.20;;
75535;SDS011;64119;52.070;20.804;2022-11-04T03:16:38;9.70;;;4.80;;
75535;SDS011;64119;52.070;20.804;2022-11-04T03:19:18;13.80;;;5.70;;
75535;SDS011;64119;52.070;20.804;2022-11-04T03:21:57;10.50;;;4.30;;
75535;SDS011;64119;52.070;20.804;2022-11-04T03:24:30;11.70;;;4.80;;
75535;SDS011;64119;52.070;20.804;2022-11-04T03:27:03;8.70;;;4.20;;
75535;SDS011;64119;52.070;20.804;2022-11-04T03:35:05;9.40;;;3.90;;
75535;SDS011;64119;52.070;20.804;2022-11-04T03:37:34;6.40;;;3.40;;
75535;SDS011;64119;52.070;20.804;2022-11-04T03:40:02;8.70;;;4.80;;
75535;SDS011;64119;52.070;20.804;2022-11-04T03:42:31;7.60;;;3.50;;
75535;SDS011;64119;52.070;20.804;2022-11-04T03:45:03;8.70;;;3.90;;
75535;SDS011;64119;52.070;20.804;2022-11-04T03:47:32;6.70;;;3.10;;
75535;SDS011;64119;52.070;20.804;2022-11-04T03:50:01;10.50;;;4.90;;
75535;SDS011;64119;52.070;20.804;2022-11-04T03:52:35;8.80;;;4.00;;
75535;SDS011;64119;52.070;20.804;2022-11-04T03:55:03;8.50;;;3.70;;
75535;SDS011;64119;52.070;20.804;2022-11-04T03:57:53;9.30;;;4.00;;
75535;SDS011;64119;52.070;20.804;2022-11-04T04:00:26;8.90;;;4.00;;
75535;SDS011;64119;52.070;20.804;2022-11-04T04:05:52;10.20;;;3.80;;
75535;SDS011;64119;52.070;20.804;2022-11-04T04:08:46;6.50;;;4.30;;
75535;SDS011;64119;52.070;20.804;2022-11-04T04:14:16;10.30;;;4.80;;
75535;SDS011;64119;52.070;20.804;2022-11-04T04:17:14;5.40;;;3.10;;
75535;SDS011;64119;52.070;20.804;2022-11-04T04:20:14;6.50;;;2.80;;
75535;SDS011;64119;52.070;20.804;2022-11-04T04:25:55;8.90;;;4.10;;
75535;SDS011;64119;52.070;20.804;2022-11-04T04:28:44;8.90;;;4.60;;
75535;SDS011;64119;52.070;20.804;2022-11-04T04:31:13;9.10;;;4.60;;
75535;SDS011;64119;52.070;20.804;2022-11-04T04:34:06;6.60;;;3.30;;
75535;SDS011;64119;52.070;20.804;2022-11-04T04:36:38;8.20;;;4.40;;
75535;SDS011;64119;52.070;20.804;2022-11-04T04:39:13;10.90;;;4.10;;
75535;SDS011;64119;52.070;20.804;2022-11-04T04:42:02;6.20;;;3.10;;
75535;SDS011;64119;52.070;20.804;2022-11-04T04:44:49;11.40;;;4.40;;
75535;SDS011;64119;52.070;20.804;2022-11-04T04:47:32;15.40;;;5.70;;
75535;SDS011;64119;52.070;20.804;2022-11-04T04:50:05;10.40;;;4.70;;
75535;SDS011;64119;52.070;20.804;2022-11-04T04:52:36;11.40;;;4.40;;
75535;SDS011;64119;52.070;20.804;2022-11-04T04:55:06;8.60;;;4.20;;
75535;SDS011;64119;52.070;20.804;2022-11-04T04:57:35;5.80;;;2.90;;
75535;SDS011;64119;52.070;20.804;2022-11-04T05:00:03;5.40;;;2.80;;
75535;SDS011;64119;52.070;20.804;2022-11-04T05:02:32;10.60;;;4.70;;
75535;SDS011;64119;52.070;20.804;2022-11-04T05:05:00;8.00;;;3.60;;
75535;SDS011;64119;52.070;20.804;2022-11-04T05:07:30;6.60;;;3.40;;
75535;SDS011;64119;52.070;20.804;2022-11-04T05:09:58;8.30;;;4.40;;
75535;SDS011;64119;52.070;20.804;2022-11-04T05:12:26;7.50;;;3.20;;
75535;SDS011;64119;52.070;20.804;2022-11-04T05:15:13;6.50;;;2.90;;
75535;SDS011;64119;52.070;20.804;2022-11-04T05:17:41;8.70;;;4.20;;
75535;SDS011;64119;52.070;20.804;2022-11-04T05:20:09;5.80;;;3.20;;
75535;SDS011;64119;52.070;20.804;2022-11-04T05:22:37;8.10;;;3.90;;
75535;SDS011;64119;52.070;20.804;2022-11-04T05:25:05;6.50;;;3.30;;
75535;SDS011;64119;52.070;20.804;2022-11-04T05:27:33;8.30;;;3.60;;
75535;SDS011;64119;52.070;20.804;2022-11-04T05:30:01;8.60;;;3.20;;
75535;SDS011;64119;52.070;20.804;2022-11-04T05:32:30;6.10;;;3.40;;
75535;SDS011;64119;52.070;20.804;2022-11-04T05:34:57;6.70;;;4.10;;
75535;SDS011;64119;52.070;20.804;2022-11-04T05:37:26;8.80;;;3.80;;
75535;SDS011;64119;52.070;20.804;2022-11-04T05:39:53;7.00;;;3.60;;
75535;SDS011;64119;52.070;20.804;2022-11-04T05:42:21;8.60;;;4.00;;
75535;SDS011;64119;52.070;20.804;2022-11-04T05:44:49;5.80;;;3.30;;
75535;SDS011;64119;52.070;20.804;2022-11-04T05:47:17;7.00;;;4.10;;
75535;SDS011;64119;52.070;20.804;2022-11-04T05:49:44;7.20;;;3.60;;
75535;SDS011;64119;52.070;20.804;2022-11-04T05:52:12;10.00;;;3.70;;
75535;SDS011;64119;52.070;20.804;2022-11-04T05:54:40;5.70;;;3.40;;
75535;SDS011;64119;52.070;20.804;2022-11-04T05:57:08;8.60;;;4.50;;
75535;SDS011;64119;52.070;20.804;2022-11-04T05:59:37;7.40;;;3.00;;
75535;SDS011;64119;52.070;20.804;2022-11-04T06:02:05;4.90;;;3.10;;
75535;SDS011;64119;52.070;20.804;2022-11-04T06:04:34;7.40;;;4.80;;
75535;SDS011;64119;52.070;20.804;2022-11-04T06:07:01;11.90;;;3.50;;
75535;SDS011;64119;52.070;20.804;2022-11-04T06:09:29;5.10;;;2.60;;
75535;SDS011;64119;52.070;20.804;2022-11-04T06:12:07;9.80;;;3.20;;
75535;SDS011;64119;52.070;20.804;2022-11-04T06:14:36;7.70;;;3.70;;
75535;SDS011;64119;52.070;20.804;2022-11-04T06:17:04;7.50;;;4.00;;
75535;SDS011;64119;52.070;20.804;2022-11-04T06:19:32;6.30;;;2.70;;
75535;SDS011;64119;52.070;20.804;2022-11-04T06:22:00;5.70;;;3.30;;
75535;SDS011;64119;52.070;20.804;2022-11-04T06:24:28;5.90;;;2.00;;
75535;SDS011;64119;52.070;20.804;2022-11-04T06:26:55;8.20;;;3.20;;
75535;SDS011;64119;52.070;20.804;2022-11-04T06:29:23;8.50;;;3.60;;
75535;SDS011;64119;52.070;20.804;2022-11-04T06:31:51;8.50;;;3.60;;
75535;SDS011;64119;52.070;20.804;2022-11-04T06:34:19;5.30;;;3.20;;
75535;SDS011;64119;52.070;20.804;2022-11-04T06:36:48;6.90;;;3.40;;
75535;SDS011;64119;52.070;20.804;2022-11-04T06:39:16;9.40;;;4.00;;
75535;SDS011;64119;52.070;20.804;2022-11-04T06:41:44;6.10;;;3.80;;
75535;SDS011;64119;52.070;20.804;2022-11-04T06:44:16;8.60;;;3.20;;
75535;SDS011;64119;52.070;20.804;2022-11-04T06:46:44;7.40;;;4.30;;
75535;SDS011;64119;52.070;20.804;2022-11-04T06:49:13;6.40;;;3.90;;
75535;SDS011;64119;52.070;20.804;2022-11-04T06:51:46;6.70;;;4.00;;
75535;SDS011;64119;52.070;20.804;2022-11-04T06:54:15;7.90;;;4.00;;
75535;SDS011;64119;52.070;20.804;2022-11-04T06:56:44;9.10;;;5.00;;
75535;SDS011;64119;52.070;20.804;2022-11-04T06:59:14;7.30;;;3.80;;
75535;SDS011;64119;52.070;20.804;2022-11-04T07:01:44;4.30;;;2.50;;
75535;SDS011;64119;52.070;20.804;2022-11-04T07:04:12;6.10;;;3.30;;
75535;SDS011;64119;52.070;20.804;2022-11-04T07:06:41;7.80;;;4.30;;
75535;SDS011;64119;52.070;20.804;2022-11-04T07:09:12;8.10;;;3.90;;
75535;SDS011;64119;52.070;20.804;2022-11-04T07:11:42;8.40;;;4.00;;
75535;SDS011;64119;52.070;20.804;2022-11-04T07:14:11;5.90;;;3.70;;
75535;SDS011;64119;52.070;20.804;2022-11-04T07:16:39;8.70;;;5.00;;
75535;SDS011;64119;52.070;20.804;2022-11-04T07:19:07;6.60;;;4.10;;
75535;SDS011;64119;52.070;20.804;2022-11-04T07:21:35;11.00;;;4.50;;
75535;SDS011;64119;52.070;20.804;2022-11-04T07:24:03;8.70;;;3.90;;
75535;SDS011;64119;52.070;20.804;2022-11-04T07:26:31;8.30;;;4.40;;
75535;SDS011;64119;52.070;20.804;2022-11-04T07:28:59;5.70;;;3.20;;
75535;SDS011;64119;52.070;20.804;2022-11-04T07:31:27;4.40;;;2.90;;
75535;SDS011;64119;52.070;20.804;2022-11-04T07:33:55;10.30;;;4.80;;
75535;SDS011;64119;52.070;20.804;2022-11-04T07:36:22;6.20;;;4.20;;
75535;SDS011;64119;52.070;20.804;2022-11-04T07:38:50;9.80;;;4.60;;
75535;SDS011;64119;52.070;20.804;2022-11-04T07:41:21;8.20;;;3.60;;
75535;SDS011;64119;52.070;20.804;2022-11-04T07:43:49;6.70;;;3.80;;
75535;SDS011;64119;52.070;20.804;2022-11-04T07:46:18;4.30;;;2.70;;
75535;SDS011;64119;52.070;20.804;2022-11-04T07:48:46;8.40;;;5.20;;
75535;SDS011;64119;52.070;20.804;2022-11-04T07:51:15;6.10;;;3.60;;
75535;SDS011;64119;52.070;20.804;2022-11-04T07:53:46;7.00;;;3.20;;
75535;SDS011;64119;52.070;20.804;2022-11-04T07:56:13;8.90;;;4.30;;
75535;SDS011;64119;52.070;20.804;2022-11-04T07:58:42;5.90;;;3.00;;
75535;SDS011;64119;52.070;20.804;2022-11-04T08:01:12;4.90;;;3.10;;
75535;SDS011;64119;52.070;20.804;2022-11-04T08:03:43;4.90;;;2.60;;
75535;SDS011;64119;52.070;20.804;2022-11-04T08:06:12;8.10;;;4.40;;
75535;SDS011;64119;52.070;20.804;2022-11-04T08:08:41;8.00;;;3.70;;
75535;SDS011;64119;52.070;20.804;2022-11-04T08:11:14;6.20;;;2.60;;
75535;SDS011;64119;52.070;20.804;2022-11-04T08:13:44;9.10;;;3.70;;
75535;SDS011;64119;52.070;20.804;2022-11-04T08:16:14;7.40;;;3.90;;
75535;SDS011;64119;52.070;20.804;2022-11-04T08:18:44;5.20;;;3.40;;
75535;SDS011;64119;52.070;20.804;2022-11-04T08:21:15;8.40;;;4.00;;
75535;SDS011;64119;52.070;20.804;2022-11-04T08:23:43;10.10;;;4.60;;
75535;SDS011;64119;52.070;20.804;2022-11-04T08:26:16;6.60;;;3.40;;
75535;SDS011;64119;52.070;20.804;2022-11-04T08:28:45;4.60;;;2.90;;
75535;SDS011;64119;52.070;20.804;2022-11-04T08:31:14;6.00;;;2.20;;
75535;SDS011;64119;52.070;20.804;2022-11-04T08:34:00;8.30;;;3.70;;
75535;SDS011;64119;52.070;20.804;2022-11-04T08:36:30;7.60;;;3.50;;
75535;SDS011;64119;52.070;20.804;2022-11-04T08:39:01;7.30;;;3.60;;
75535;SDS011;64119;52.070;20.804;2022-11-04T08:41:38;6.90;;;3.80;;
75535;SDS011;64119;52.070;20.804;2022-11-04T08:44:07;10.60;;;5.10;;
75535;SDS011;64119;52.070;20.804;2022-11-04T08:46:37;10.70;;;4.80;;
75535;SDS011;64119;52.070;20.804;2022-11-04T08:49:06;8.30;;;3.70;;
75535;SDS011;64119;52.070;20.804;2022-11-04T08:51:39;9.40;;;4.40;;
75535;SDS011;64119;52.070;20.804;2022-11-04T08:54:09;6.50;;;3.80;;
75535;SDS011;64119;52.070;20.804;2022-11-04T08:56:37;5.10;;;2.50;;
75535;SDS011;64119;52.070;20.804;2022-11-04T08:59:06;7.40;;;4.20;;
75535;SDS011;64119;52.070;20.804;2022-11-04T09:01:35;6.60;;;3.40;;
75535;SDS011;64119;52.070;20.804;2022-11-04T09:04:04;8.40;;;4.80;;
75535;SDS011;64119;52.070;20.804;2022-11-04T09:06:34;6.50;;;4.10;;
75535;SDS011;64119;52.070;20.804;2022-11-04T09:09:05;8.20;;;4.20;;
75535;SDS011;64119;52.070;20.804;2022-11-04T09:11:36;5.80;;;3.40;;
75535;SDS011;64119;52.070;20.804;2022-11-04T09:14:05;6.60;;;3.90;;
75535;SDS011;64119;52.070;20.804;2022-11-04T09:16:34;7.60;;;4.20;;
75535;SDS011;64119;52.070;20.804;2022-11-04T09:19:06;6.90;;;3.80;;
75535;SDS011;64119;52.070;20.804;2022-11-04T09:21:34;9.10;;;3.60;;
75535;SDS011;64119;52.070;20.804;2022-11-04T09:24:03;7.80;;;4.40;;
75535;SDS011;64119;52.070;20.804;2022-11-04T09:26:31;7.10;;;3.80;;
75535;SDS011;64119;52.070;20.804;2022-11-04T09:28:59;10.30;;;5.30;;
75535;SDS011;64119;52.070;20.804;2022-11-04T09:31:27;7.80;;;4.40;;
75535;SDS011;64119;52.070;20.804;2022-11-04T09:33:56;7.10;;;3.90;;
75535;SDS011;64119;52.070;20.804;2022-11-04T09:36:24;6.40;;;3.90;;
75535;SDS011;64119;52.070;20.804;2022-11-04T09:38:52;8.60;;;4.30;;
75535;SDS011;64119;52.070;20.804;2022-11-04T09:43:52;8.80;;;3.50;;
75535;SDS011;64119;52.070;20.804;2022-11-04T09:46:44;6.90;;;3.90;;
75535;SDS011;64119;52.070;20.804;2022-11-04T09:49:15;7.10;;;3.60;;
75535;SDS011;64119;52.070;20.804;2022-11-04T09:51:43;9.10;;;5.00;;
75535;SDS011;64119;52.070;20.804;2022-11-04T09:54:22;11.00;;;5.30;;
75535;SDS011;64119;52.070;20.804;2022-11-04T09:56:52;8.10;;;3.60;;
75535;SDS011;64119;52.070;20.804;2022-11-04T09:59:25;11.60;;;5.40;;
75535;SDS011;64119;52.070;20.804;2022-11-04T10:01:58;6.60;;;3.60;;
75535;SDS011;64119;52.070;20.804;2022-11-04T10:04:44;8.30;;;4.70;;
75535;SDS011;64119;52.070;20.804;2022-11-04T10:15:10;8.10;;;4.70;;
75535;SDS011;64119;52.070;20.804;2022-11-04T10:25:48;9.00;;;4.20;;
75535;SDS011;64119;52.070;20.804;2022-11-04T10:28:24;10.90;;;4.90;;
75535;SDS011;64119;52.070;20.804;2022-11-04T10:31:00;10.90;;;4.90;;
75535;SDS011;64119;52.070;20.804;2022-11-04T10:33:31;10.00;;;4.10;;
75535;SDS011;64119;52.070;20.804;2022-11-04T10:36:03;7.00;;;4.20;;
75535;SDS011;64119;52.070;20.804;2022-11-04T10:38:44;9.40;;;4.00;;
75535;SDS011;64119;52.070;20.804;2022-11-04T10:41:33;8.90;;;5.20;;
75535;SDS011;64119;52.070;20.804;2022-11-04T10:44:05;6.30;;;3.50;;
75535;SDS011;64119;52.070;20.804;2022-11-04T10:46:56;10.70;;;4.90;;
75535;SDS011;64119;52.070;20.804;2022-11-04T10:51:53;7.80;;;4.40;;
75535;SDS011;64119;52.070;20.804;2022-11-04T10:54:24;7.00;;;4.80;;
75535;SDS011;64119;52.070;20.804;2022-11-04T10:56:54;8.00;;;4.60;;
75535;SDS011;64119;52.070;20.804;2022-11-04T10:59:24;6.50;;;3.50;;
75535;SDS011;64119;52.070;20.804;2022-11-04T11:01:53;9.40;;;4.60;;
75535;SDS011;64119;52.070;20.804;2022-11-04T11:04:33;10.10;;;5.10;;
75535;SDS011;64119;52.070;20.804;2022-11-04T11:07:04;7.00;;;3.90;;
75535;SDS011;64119;52.070;20.804;2022-11-04T11:12:20;7.50;;;3.80;;
75535;SDS011;64119;52.070;20.804;2022-11-04T11:18:00;8.20;;;4.80;;
75535;SDS011;64119;52.070;20.804;2022-11-04T11:21:13;8.60;;;5.30;;
75535;SDS011;64119;52.070;20.804;2022-11-04T11:23:47;6.60;;;4.40;;
75535;SDS011;64119;52.070;20.804;2022-11-04T11:28:55;10.30;;;4.40;;
75535;SDS011;64119;52.070;20.804;2022-11-04T11:31:35;9.40;;;5.10;;
75535;SDS011;64119;52.070;20.804;2022-11-04T11:34:06;7.80;;;4.60;;
75535;SDS011;64119;52.070;20.804;2022-11-04T11:36:42;7.60;;;4.00;;
75535;SDS011;64119;52.070;20.804;2022-11-04T11:41:53;8.10;;;4.70;;
75535;SDS011;64119;52.070;20.804;2022-11-04T11:50:13;9.70;;;5.30;;
75535;SDS011;64119;52.070;20.804;2022-11-04T11:53:16;6.30;;;3.80;;
75535;SDS011;64119;52.070;20.804;2022-11-04T11:56:31;6.80;;;3.60;;
75535;SDS011;64119;52.070;20.804;2022-11-04T11:59:19;7.70;;;4.30;;
75535;SDS011;64119;52.070;20.804;2022-11-04T12:05:00;9.00;;;4.40;;
75535;SDS011;64119;52.070;20.804;2022-11-04T12:07:57;10.90;;;4.50;;
75535;SDS011;64119;52.070;20.804;2022-11-04T12:10:58;7.90;;;4.10;;
75535;SDS011;64119;52.070;20.804;2022-11-04T12:17:06;6.50;;;4.30;;
75535;SDS011;64119;52.070;20.804;2022-11-04T12:19:51;5.70;;;3.20;;
75535;SDS011;64119;52.070;20.804;2022-11-04T12:25:32;7.60;;;4.30;;
75535;SDS011;64119;52.070;20.804;2022-11-04T12:44:43;8.30;;;4.30;;
75535;SDS011;64119;52.070;20.804;2022-11-04T12:49:55;5.40;;;2.70;;
75535;SDS011;64119;52.070;20.804;2022-11-04T13:00:20;6.50;;;3.30;;
75535;SDS011;64119;52.070;20.804;2022-11-04T13:05:46;8.20;;;4.40;;
75535;SDS011;64119;52.070;20.804;2022-11-04T13:11:17;8.90;;;5.40;;
75535;SDS011;64119;52.070;20.804;2022-11-04T13:16:41;9.70;;;4.40;;
75535;SDS011;64119;52.070;20.804;2022-11-04T13:22:02;6.90;;;3.70;;
75535;SDS011;64119;52.070;20.804;2022-11-04T13:24:37;8.50;;;4.70;;
75535;SDS011;64119;52.070;20.804;2022-11-04T13:27:22;8.20;;;4.70;;
75535;SDS011;64119;52.070;20.804;2022-11-04T13:30:01;7.00;;;4.50;;
75535;SDS011;64119;52.070;20.804;2022-11-04T13:32:37;8.70;;;4.90;;
75535;SDS011;64119;52.070;20.804;2022-11-04T13:38:13;14.10;;;6.80;;
75535;SDS011;64119;52.070;20.804;2022-11-04T13:40:49;13.80;;;5.80;;
75535;SDS011;64119;52.070;20.804;2022-11-04T13:43:32;15.20;;;7.10;;
75535;SDS011;64119;52.070;20.804;2022-11-04T13:46:04;14.80;;;8.20;;
75535;SDS011;64119;52.070;20.804;2022-11-04T13:49:03;8.00;;;5.00;;
75535;SDS011;64119;52.070;20.804;2022-11-04T13:54:01;8.50;;;5.00;;
75535;SDS011;64119;52.070;20.804;2022-11-04T13:56:38;6.30;;;3.50;;
75535;SDS011;64119;52.070;20.804;2022-11-04T13:59:19;8.60;;;4.10;;
75535;SDS011;64119;52.070;20.804;2022-11-04T14:04:40;9.80;;;4.90;;
75535;SDS011;64119;52.070;20.804;2022-11-04T14:07:08;10.90;;;4.80;;
75535;SDS011;64119;52.070;20.804;2022-11-04T14:15:22;8.40;;;4.00;;
75535;SDS011;64119;52.070;20.804;2022-11-04T14:30:49;4.10;;;2.50;;
75535;SDS011;64119;52.070;20.804;2022-11-04T14:33:18;6.10;;;3.40;;
75535;SDS011;64119;52.070;20.804;2022-11-04T14:35:52;4.20;;;2.70;;
75535;SDS011;64119;52.070;20.804;2022-11-04T14:43:47;7.30;;;3.60;;
75535;SDS011;64119;52.070;20.804;2022-11-04T14:46:19;6.80;;;3.30;;
75535;SDS011;64119;52.070;20.804;2022-11-04T14:48:49;5.80;;;3.60;;
75535;SDS011;64119;52.070;20.804;2022-11-04T14:51:24;8.40;;;3.70;;
75535;SDS011;64119;52.070;20.804;2022-11-04T14:53:54;5.30;;;3.10;;
75535;SDS011;64119;52.070;20.804;2022-11-04T14:56:29;9.30;;;4.70;;
75535;SDS011;64119;52.070;20.804;2022-11-04T14:59:03;5.90;;;3.50;;
75535;SDS011;64119;52.070;20.804;2022-11-04T15:01:32;7.90;;;4.80;;
75535;SDS011;64119;52.070;20.804;2022-11-04T15:04:06;9.10;;;4.50;;
75535;SDS011;64119;52.070;20.804;2022-11-04T15:06:43;8.80;;;6.80;;
75535;SDS011;64119;52.070;20.804;2022-11-04T15:09:28;9.50;;;5.00;;
75535;SDS011;64119;52.070;20.804;2022-11-04T15:12:08;10.00;;;6.10;;
75535;SDS011;64119;52.070;20.804;2022-11-04T15:14:59;7.10;;;4.50;;
75535;SDS011;64119;52.070;20.804;2022-11-04T15:17:26;6.80;;;4.00;;
75535;SDS011;64119;52.070;20.804;2022-11-04T15:19:56;6.40;;;4.00;;
75535;SDS011;64119;52.070;20.804;2022-11-04T15:22:26;5.30;;;3.00;;
75535;SDS011;64119;52.070;20.804;2022-11-04T15:24:54;10.10;;;5.30;;
75535;SDS011;64119;52.070;20.804;2022-11-04T15:27:27;9.00;;;4.30;;
75535;SDS011;64119;52.070;20.804;2022-11-04T15:29:55;8.10;;;4.50;;
75535;SDS011;64119;52.070;20.804;2022-11-04T15:42:29;9.00;;;4.60;;
75535;SDS011;64119;52.070;20.804;2022-11-04T15:47:55;4.80;;;3.20;;
75535;SDS011;64119;52.070;20.804;2022-11-04T15:56:46;5.00;;;2.80;;
75535;SDS011;64119;52.070;20.804;2022-11-04T15:59:20;6.60;;;3.70;;
75535;SDS011;64119;52.070;20.804;2022-11-04T16:01:51;4.90;;;2.80;;
75535;SDS011;64119;52.070;20.804;2022-11-04T16:04:21;9.60;;;4.30;;
75535;SDS011;64119;52.070;20.804;2022-11-04T16:10:38;6.30;;;2.80;;
75535;SDS011;64119;52.070;20.804;2022-11-04T16:12:53;4.30;;;2.30;;
75535;SDS011;64119;52.070;20.804;2022-11-04T16:15:30;5.60;;;2.50;;
75535;SDS011;64119;52.070;20.804;2022-11-04T16:17:58;7.80;;;3.90;;
75535;SDS011;64119;52.070;20.804;2022-11-04T16:20:26;5.80;;;3.70;;
75535;SDS011;64119;52.070;20.804;2022-11-04T16:22:55;14.60;;;5.60;;
75535;SDS011;64119;52.070;20.804;2022-11-04T16:25:29;11.00;;;5.80;;
75535;SDS011;64119;52.070;20.804;2022-11-04T16:28:01;11.70;;;5.30;;
75535;SDS011;64119;52.070;20.804;2022-11-04T16:40:53;6.40;;;3.30;;
75535;SDS011;64119;52.070;20.804;2022-11-04T16:43:21;10.30;;;5.00;;
75535;SDS011;64119;52.070;20.804;2022-11-04T16:45:49;8.60;;;4.60;;
75535;SDS011;64119;52.070;20.804;2022-11-04T16:48:20;8.70;;;5.50;;
75535;SDS011;64119;52.070;20.804;2022-11-04T16:50:51;14.80;;;7.60;;
75535;SDS011;64119;52.070;20.804;2022-11-04T16:53:18;9.00;;;4.10;;
75535;SDS011;64119;52.070;20.804;2022-11-04T16:55:46;9.80;;;5.50;;
75535;SDS011;64119;52.070;20.804;2022-11-04T16:58:17;12.80;;;6.50;;
75535;SDS011;64119;52.070;20.804;2022-11-04T17:00:45;10.10;;;5.40;;
75535;SDS011;64119;52.070;20.804;2022-11-04T17:03:17;8.20;;;3.80;;
75535;SDS011;64119;52.070;20.804;2022-11-04T17:08:17;7.80;;;4.00;;
75535;SDS011;64119;52.070;20.804;2022-11-04T17:10:45;8.60;;;4.90;;
75535;SDS011;64119;52.070;20.804;2022-11-04T17:13:13;8.60;;;4.80;;
75535;SDS011;64119;52.070;20.804;2022-11-04T17:15:41;11.70;;;7.00;;
75535;SDS011;64119;52.070;20.804;2022-11-04T17:18:12;12.60;;;7.00;;
75535;SDS011;64119;52.070;20.804;2022-11-04T17:20:43;11.80;;;6.30;;
75535;SDS011;64119;52.070;20.804;2022-11-04T17:23:14;12.50;;;7.10;;
75535;SDS011;64119;52.070;20.804;2022-11-04T17:25:43;12.60;;;8.00;;
75535;SDS011;64119;52.070;20.804;2022-11-04T17:28:12;12.00;;;6.80;;
75535;SDS011;64119;52.070;20.804;2022-11-04T17:30:41;16.30;;;8.60;;
75535;SDS011;64119;52.070;20.804;2022-11-04T17:33:11;20.40;;;8.90;;
75535;SDS011;64119;52.070;20.804;2022-11-04T17:35:40;12.30;;;6.50;;
75535;SDS011;64119;52.070;20.804;2022-11-04T17:38:10;14.10;;;7.90;;
75535;SDS011;64119;52.070;20.804;2022-11-04T17:40:39;22.00;;;11.00;;
75535;SDS011;64119;52.070;20.804;2022-11-04T17:43:25;19.10;;;9.80;;
75535;SDS011;64119;52.070;20.804;2022-11-04T17:46:12;17.30;;;8.00;;
75535;SDS011;64119;52.070;20.804;2022-11-04T17:49:00;11.80;;;6.50;;
75535;SDS011;64119;52.070;20.804;2022-11-04T17:51:29;11.70;;;6.50;;
75535;SDS011;64119;52.070;20.804;2022-11-04T17:53:57;13.40;;;7.50;;
75535;SDS011;64119;52.070;20.804;2022-11-04T17:56:25;10.70;;;5.50;;
75535;SDS011;64119;52.070;20.804;2022-11-04T17:58:53;14.20;;;7.90;;
75535;SDS011;64119;52.070;20.804;2022-11-04T18:01:21;15.40;;;7.70;;
75535;SDS011;64119;52.070;20.804;2022-11-04T18:03:50;15.00;;;8.40;;
75535;SDS011;64119;52.070;20.804;2022-11-04T18:06:21;21.10;;;10.50;;
75535;SDS011;64119;52.070;20.804;2022-11-04T18:08:52;22.50;;;10.00;;
75535;SDS011;64119;52.070;20.804;2022-11-04T18:11:23;17.40;;;9.00;;
75535;SDS011;64119;52.070;20.804;2022-11-04T18:14:11;14.90;;;8.10;;
75535;SDS011;64119;52.070;20.804;2022-11-04T18:16:44;15.40;;;7.30;;
75535;SDS011;64119;52.070;20.804;2022-11-04T18:19:13;13.20;;;6.90;;
75535;SDS011;64119;52.070;20.804;2022-11-04T18:21:43;12.90;;;6.40;;